Leeds, South Carolina
Current Conditions -  °F | °C
As of 8:55 PM on Monday 24 Nov 2014 (Local Time) from KDCM Reporting Station
Clear Clear  
Wind Chill: 66°   Ceiling: Unl
Heat Index: 66°   Visibility: 10mi
Dew Point: 63°   Wind: 6mph
Humidity: 88%   Direction: 180°S
Pressure: 29.92"   Gusts: NA
Location:  34.6017°N, 81.4953°W
Report Text: KDCM 250155Z AUTO 18005KT 10SM CLR 19/17 A2992 RMK AO2
Loading
Personal Weather Stations






























Interactive Weather Map New forecast layout! Learn more

10-Day Weather Forecast

Advertisements
Track Severe Weather on mobile